Time;durP1;ratioP1;P1;durP2;ratioP2;P2;SDS_P1;SDS_P2;PMS_P1;PMS_P2;Temp;Humidity;BMP_temperature;BMP_pressure;BME280_temperature;BME280_humidity;BME280_pressure;Samples;Min_cycle;Max_cycle;Signal;HPM_P1;HPM_P2
2023/12/06 00:02:06;;;;;;;14.15;9.90;;;;;;;0.59;100.00;95619.28;5030750;28;20040;-68
2023/12/06 00:04:31;;;;;;;18.25;12.30;;;;;;;0.58;100.00;95618.44;5023450;28;20113;-67
2023/12/06 00:06:57;;;;;;;14.45;10.70;;;;;;;0.56;100.00;95617.69;5026333;28;20034;-68
2023/12/06 00:09:22;;;;;;;16.48;10.98;;;;;;;0.55;100.00;95623.78;5023076;28;20037;-68
2023/12/06 00:11:47;;;;;;;17.50;12.15;;;;;;;0.56;100.00;95615.09;5029529;28;20064;-68
2023/12/06 00:14:13;;;;;;;16.83;12.70;;;;;;;0.57;100.00;95611.59;5030027;28;20040;-68
2023/12/06 00:16:39;;;;;;;19.13;13.80;;;;;;;0.59;100.00;95619.28;5026869;28;20029;-68
2023/12/06 00:19:05;;;;;;;15.07;11.68;;;;;;;0.58;100.00;95608.06;5023797;28;20041;-68
2023/12/06 00:21:30;;;;;;;16.27;11.68;;;;;;;0.57;100.00;95620.22;5020981;28;20017;-68
2023/12/06 00:23:56;;;;;;;16.58;12.90;;;;;;;0.53;100.00;95613.50;5026513;28;20141;-68
2023/12/06 00:26:21;;;;;;;19.30;13.60;;;;;;;0.52;100.00;95608.41;5027193;28;20022;-68
2023/12/06 00:28:47;;;;;;;18.05;13.27;;;;;;;0.54;100.00;95609.97;5027657;28;20394;-68
2023/12/06 00:31:12;;;;;;;15.77;12.75;;;;;;;0.56;100.00;95604.72;5042595;28;20458;-68
2023/12/06 00:33:38;;;;;;;11.50;10.38;;;;;;;0.52;100.00;95601.47;5022145;28;20021;-69
2023/12/06 00:36:04;;;;;;;30.80;17.00;;;;;;;0.59;100.00;95603.75;5025454;28;20034;-68
2023/12/06 00:38:29;;;;;;;49.78;26.10;;;;;;;0.55;100.00;95598.72;5027586;28;20029;-68
2023/12/06 00:40:55;;;;;;;39.88;23.55;;;;;;;0.54;100.00;95602.22;5030799;28;20029;-68
2023/12/06 00:43:20;;;;;;;54.97;30.50;;;;;;;0.55;100.00;95603.06;5028962;28;20031;-68
2023/12/06 00:45:46;;;;;;;45.78;28.05;;;;;;;0.57;100.00;95596.03;5031003;28;20109;-68
2023/12/06 00:48:12;;;;;;;53.42;27.55;;;;;;;0.58;100.00;95592.53;5030546;28;20030;-68
2023/12/06 00:50:37;;;;;;;40.97;24.23;;;;;;;0.51;100.00;95599.78;5024536;28;20040;-68
2023/12/06 00:53:03;;;;;;;38.97;21.45;;;;;;;0.53;100.00;95599.72;5028548;28;20045;-68
2023/12/06 00:55:28;;;;;;;33.45;20.60;;;;;;;0.54;100.00;95602.22;5022683;28;20442;-68
2023/12/06 00:57:53;;;;;;;34.47;20.23;;;;;;;0.55;100.00;95592.69;5024770;28;20176;-69
2023/12/06 01:00:19;;;;;;;28.08;18.23;;;;;;;0.53;100.00;95604.91;5027624;28;20112;-68
2023/12/06 01:02:44;;;;;;;24.20;15.27;;;;;;;0.52;100.00;95593.69;5027722;28;20026;-68
2023/12/06 01:05:10;;;;;;;22.20;14.95;;;;;;;0.52;100.00;95593.69;5029101;28;20025;-69
2023/12/06 01:07:35;;;;;;;20.88;14.85;;;;;;;0.54;100.00;95596.19;5032361;28;20061;-68
2023/12/06 01:10:02;;;;;;;17.65;12.68;;;;;;;0.56;100.00;95595.22;5023736;28;20084;-68
2023/12/06 01:12:27;;;;;;;13.95;10.82;;;;;;;0.57;100.00;95601.22;5030308;28;20022;-68
2023/12/06 01:14:53;;;;;;;10.88;9.43;;;;;;;0.58;100.00;95597.72;5025454;28;20398;-68
2023/12/06 01:17:18;;;;;;;11.05;8.70;;;;;;;0.57;100.00;95602.06;5027939;28;20105;-68
2023/12/06 01:19:43;;;;;;;14.43;9.38;;;;;;;0.55;100.00;95603.06;5025770;28;20034;-68
2023/12/06 01:22:09;;;;;;;11.90;8.90;;;;;;;0.53;100.00;95597.13;5029577;28;20546;-68
2023/12/06 01:24:34;;;;;;;10.30;8.63;;;;;;;0.51;100.00;95599.78;5025984;28;20017;-68
2023/12/06 01:26:59;;;;;;;9.45;8.45;;;;;;;0.47;100.00;95598.28;5023914;28;20021;-68
2023/12/06 01:29:25;;;;;;;12.73;9.63;;;;;;;0.47;100.00;95592.28;5020594;28;20034;-68
2023/12/06 01:31:50;;;;;;;31.33;15.25;;;;;;;0.46;100.00;95601.78;5024261;28;20104;-68
2023/12/06 01:34:15;;;;;;;20.52;14.95;;;;;;;0.42;100.00;95600.28;5023856;28;20022;-68
2023/12/06 01:36:41;;;;;;;15.85;12.35;;;;;;;0.41;100.00;95601.22;5031495;28;20444;-68
2023/12/06 01:39:07;;;;;;;16.45;13.75;;;;;;;0.39;100.00;95603.06;5028765;28;20119;-68
2023/12/06 01:41:33;;;;;;;19.33;13.43;;;;;;;0.40;100.00;95599.53;5028706;28;20034;-68
2023/12/06 01:43:58;;;;;;;21.80;14.43;;;;;;;0.39;100.00;95603.88;5032659;28;20032;-68
2023/12/06 01:46:24;;;;;;;25.20;16.02;;;;;;;0.41;100.00;95607.22;5035228;28;20479;-68
2023/12/06 01:48:52;;;;;;;20.00;14.70;;;;;;;0.42;100.00;95608.88;5035141;28;20108;-68
2023/12/06 01:51:19;;;;;;;23.15;15.30;;;;;;;0.39;100.00;95611.63;5030902;28;20022;-68
2023/12/06 01:53:44;;;;;;;18.98;11.88;;;;;;;0.40;100.00;95609.91;5037284;28;20053;-68
2023/12/06 01:56:11;;;;;;;15.65;12.02;;;;;;;0.34;100.00;95607.66;5034111;28;20017;-68
2023/12/06 01:58:38;;;;;;;17.95;12.50;;;;;;;0.34;100.00;95615.41;5032826;28;20029;-68
2023/12/06 02:01:06;;;;;;;18.13;12.18;;;;;;;0.35;100.00;95609.31;5034714;28;20124;-68
2023/12/06 02:03:33;;;;;;;19.48;12.30;;;;;;;0.36;100.00;95614.41;5034494;28;20063;-68
2023/12/06 02:06:01;;;;;;;12.98;10.48;;;;;;;0.34;100.00;95605.06;5028961;28;20018;-68
2023/12/06 02:08:27;;;;;;;14.07;11.15;;;;;;;0.32;100.00;95597.34;5027013;28;20494;-68
2023/12/06 02:10:53;;;;;;;19.70;14.73;;;;;;;0.34;100.00;95605.88;5033099;28;20041;-68
2023/12/06 02:13:18;;;;;;;24.38;18.23;;;;;;;0.42;100.00;95600.28;5036343;28;20025;-68
2023/12/06 02:15:47;;;;;;;20.60;16.27;;;;;;;0.35;100.00;95601.53;5034941;28;20445;-68
2023/12/06 02:18:13;;;;;;;18.50;15.07;;;;;;;0.28;100.00;95601.84;5038172;28;20561;-68
2023/12/06 02:20:39;;;;;;;18.52;14.88;;;;;;;0.27;100.00;95597.59;5030743;28;20026;-68
2023/12/06 02:23:07;;;;;;;17.83;13.50;;;;;;;0.25;100.00;95604.59;5035160;28;20026;-68
2023/12/06 02:25:33;;;;;;;18.88;13.93;;;;;;;0.20;100.00;95610.94;5031977;28;20025;-68
2023/12/06 02:27:59;;;;;;;15.55;12.38;;;;;;;0.11;100.00;95610.50;5036252;28;20049;-68
2023/12/06 02:30:24;;;;;;;14.38;11.18;;;;;;;0.06;100.00;95609.91;5029099;28;20118;-68
2023/12/06 02:32:49;;;;;;;13.63;10.65;;;;;;;0.02;100.00;95610.16;5028990;28;20027;-68
2023/12/06 02:35:18;;;;;;;16.17;11.00;;;;;;;-0.02;100.00;95614.63;5030946;28;20064;-68
2023/12/06 02:37:46;;;;;;;13.65;9.65;;;;;;;-0.05;100.00;95613.06;5037973;28;20471;-69
2023/12/06 02:40:13;;;;;;;12.73;9.73;;;;;;;-0.09;100.00;95616.72;5031717;28;20506;-68
2023/12/06 02:42:39;;;;;;;12.65;9.57;;;;;;;-0.11;100.00;95626.31;5035743;28;20029;-68
2023/12/06 02:45:05;;;;;;;11.98;8.57;;;;;;;-0.07;100.00;95632.16;5031752;28;20741;-68
2023/12/06 02:47:30;;;;;;;26.95;17.55;;;;;;;-0.15;100.00;95624.78;5033610;28;20029;-68
2023/12/06 02:49:56;;;;;;;14.40;9.18;;;;;;;-0.11;100.00;95625.47;5034352;28;20557;-68
2023/12/06 02:52:21;;;;;;;19.45;11.32;;;;;;;-0.13;100.00;95633.31;5035811;28;20434;-68
2023/12/06 02:54:46;;;;;;;12.65;7.82;;;;;;;-0.18;100.00;95630.97;5026512;28;20100;-68
2023/12/06 02:57:12;;;;;;;12.90;7.13;;;;;;;-0.20;100.00;95621.59;5033509;28;20033;-68
2023/12/06 02:59:37;;;;;;;9.98;7.28;;;;;;;-0.21;100.00;95625.94;5031951;28;20029;-68
2023/12/06 03:02:04;;;;;;;11.43;8.45;;;;;;;-0.21;100.00;95625.09;5023601;28;20103;-68
2023/12/06 03:04:30;;;;;;;16.10;10.88;;;;;;;-0.24;100.00;95618.31;5029121;28;20064;-68
2023/12/06 03:06:55;;;;;;;12.48;9.52;;;;;;;-0.30;100.00;95616.06;5029129;28;20033;-68
2023/12/06 03:09:21;;;;;;;9.65;8.63;;;;;;;-0.35;100.00;95611.09;5028454;28;20030;-69
2023/12/06 03:11:46;;;;;;;15.32;8.13;;;;;;;-0.38;100.00;95613.03;5031411;28;20381;-68
2023/12/06 03:14:11;;;;;;;11.85;8.85;;;;;;;-0.40;100.00;95612.25;5025456;28;20041;-68
2023/12/06 03:16:37;;;;;;;14.25;9.50;;;;;;;-0.44;100.00;95604.66;5031646;28;20032;-68
2023/12/06 03:19:02;;;;;;;13.45;10.73;;;;;;;-0.46;100.00;95605.66;5012441;28;20030;-68
2023/12/06 03:21:27;;;;;;;15.75;9.50;;;;;;;-0.51;100.00;95602.44;5023794;28;20037;-68
2023/12/06 03:23:53;;;;;;;12.63;8.23;;;;;;;-0.56;100.00;95597.50;5025241;28;20038;-68
2023/12/06 03:26:18;;;;;;;8.88;6.25;;;;;;;-0.53;100.00;95596.53;5031804;28;20057;-68
2023/12/06 03:28:44;;;;;;;7.32;6.55;;;;;;;-0.68;100.00;95601.53;5027597;28;20083;-68
2023/12/06 03:31:09;;;;;;;10.52;6.63;;;;;;;-0.69;100.00;95597.28;5024812;28;20034;-68
2023/12/06 03:33:34;;;;;;;15.75;14.02;;;;;;;-0.66;100.00;95597.13;5028663;28;20025;-68
2023/12/06 03:35:59;;;;;;;16.52;14.38;;;;;;;-0.68;100.00;95598.09;5021036;28;20117;-68
2023/12/06 03:38:25;;;;;;;20.30;11.95;;;;;;;-0.79;100.00;95588.28;5031697;28;20033;-68
2023/12/06 03:40:50;;;;;;;13.23;8.85;;;;;;;-0.83;100.00;95595.38;5028703;28;20029;-68
2023/12/06 03:43:16;;;;;;;10.05;7.13;;;;;;;-0.89;100.00;95588.75;5023618;28;20036;-68
2023/12/06 03:45:42;;;;;;;10.07;6.38;;;;;;;-0.89;100.00;95588.75;5005781;28;20094;-68
2023/12/06 03:48:08;;;;;;;7.90;6.45;;;;;;;-0.88;100.00;95585.25;5033738;28;20029;-68
2023/12/06 03:50:33;;;;;;;6.30;5.63;;;;;;;-0.85;100.00;95594.59;5032963;28;20102;-68
2023/12/06 03:52:59;;;;;;;8.43;6.75;;;;;;;-0.84;100.00;95590.25;5031900;28;20138;-68
2023/12/06 03:55:24;;;;;;;13.57;10.25;;;;;;;-0.85;100.00;95592.03;5025713;28;20034;-68
2023/12/06 03:57:50;;;;;;;12.48;10.10;;;;;;;-0.85;100.00;95588.59;5031704;28;20029;-68
2023/12/06 04:00:16;;;;;;;11.65;8.73;;;;;;;-0.92;100.00;95591.47;5026541;28;20026;-68
2023/12/06 04:02:41;;;;;;;11.63;9.10;;;;;;;-0.94;100.00;95592.44;5027060;28;20030;-68
2023/12/06 04:05:08;;;;;;;15.48;11.50;;;;;;;-0.96;100.00;95589.09;5020928;28;20422;-68
2023/12/06 04:07:33;;;;;;;20.23;12.18;;;;;;;-0.96;100.00;95591.69;5026580;28;20124;-68
2023/12/06 04:09:58;;;;;;;19.27;11.68;;;;;;;-0.99;100.00;95590.09;5027293;28;20049;-68
2023/12/06 04:12:24;;;;;;;15.55;11.57;;;;;;;-1.07;100.00;95585.31;5029458;28;20101;-68
2023/12/06 04:14:49;;;;;;;17.40;11.68;;;;;;;-1.11;100.00;95590.69;5030840;28;20044;-68
2023/12/06 04:17:15;;;;;;;11.68;10.05;;;;;;;-1.20;100.00;95591.94;5021799;28;20029;-68
2023/12/06 04:19:40;;;;;;;12.32;9.68;;;;;;;-1.23;100.00;95594.69;5022408;28;20522;-68
2023/12/06 04:22:06;;;;;;;9.05;8.02;;;;;;;-1.30;100.00;95588.97;5027966;28;20025;-68
2023/12/06 04:24:32;;;;;;;10.43;5.95;;;;;;;-1.31;100.00;95589.88;5022603;28;20033;-68
2023/12/06 04:26:57;;;;;;;6.55;5.57;;;;;;;-1.31;100.00;95589.88;5031332;28;20025;-68
2023/12/06 04:29:23;;;;;;;6.85;6.18;;;;;;;-1.33;100.00;95578.78;5038395;28;20386;-68
2023/12/06 04:31:48;;;;;;;7.03;5.40;;;;;;;-1.25;100.00;95581.81;5023724;28;20114;-68
2023/12/06 04:34:14;;;;;;;6.38;5.07;;;;;;;-1.31;100.00;95574.38;5026576;28;20022;-67
2023/12/06 04:36:40;;;;;;;7.72;5.57;;;;;;;-1.36;100.00;95569.41;5023881;28;20049;-68
2023/12/06 04:39:05;;;;;;;6.90;5.32;;;;;;;-1.39;100.00;95572.16;5025192;28;20442;-68
2023/12/06 04:41:30;;;;;;;6.03;5.30;;;;;;;-1.44;100.00;95576.69;5022306;28;20026;-68
2023/12/06 04:43:56;;;;;;;13.93;8.73;;;;;;;-1.43;100.00;95569.78;5028843;28;20036;-68
2023/12/06 04:46:22;;;;;;;12.70;8.40;;;;;;;-1.41;100.00;95571.38;5021326;28;20124;-68
2023/12/06 04:48:47;;;;;;;7.78;6.88;;;;;;;-1.45;100.00;95567.28;5024816;28;20051;-68
2023/12/06 04:51:12;;;;;;;6.07;5.18;;;;;;;-1.52;100.00;95579.63;5025243;28;20033;-68
2023/12/06 04:53:38;;;;;;;6.05;4.75;;;;;;;-1.56;100.00;95582.41;5030946;28;20555;-68
2023/12/06 04:56:03;;;;;;;9.40;6.00;;;;;;;-1.58;100.00;95580.75;5024695;28;20030;-68
2023/12/06 04:58:29;;;;;;;7.68;6.20;;;;;;;-1.57;100.00;95584.19;5029506;28;20100;-68
2023/12/06 05:00:54;;;;;;;7.75;6.72;;;;;;;-1.50;100.00;95584.72;5019788;28;20033;-67
2023/12/06 05:03:20;;;;;;;11.90;7.97;;;;;;;-1.44;100.00;95589.59;5024572;28;20437;-67
2023/12/06 05:05:45;;;;;;;17.92;9.43;;;;;;;-1.50;100.00;95595.88;5020859;28;20108;-67
2023/12/06 05:08:11;;;;;;;12.85;7.90;;;;;;;-1.49;100.00;95596.75;5026631;28;20028;-68
2023/12/06 05:10:36;;;;;;;12.80;8.73;;;;;;;-1.52;100.00;95602.03;5028332;28;20079;-68
2023/12/06 05:13:01;;;;;;;14.55;8.43;;;;;;;-1.56;100.00;95609.09;5029268;28;22064;-67
2023/12/06 05:15:27;;;;;;;10.70;7.57;;;;;;;-1.57;100.00;95612.56;5029445;28;20026;-68
2023/12/06 05:17:52;;;;;;;12.32;9.02;;;;;;;-1.58;100.00;95606.56;5023738;28;20053;-68
2023/12/06 05:20:18;;;;;;;10.52;8.68;;;;;;;-1.53;100.00;95619.28;5026287;28;20113;-67
2023/12/06 05:22:43;;;;;;;14.88;10.50;;;;;;;-1.59;100.00;95622.13;5041532;28;20218;-67
2023/12/06 05:25:09;;;;;;;11.68;9.15;;;;;;;-1.60;100.00;95620.47;5028660;28;20021;-67
2023/12/06 05:27:34;;;;;;;13.85;9.05;;;;;;;-1.51;100.00;95617.44;5029161;28;20438;-67
2023/12/06 05:29:59;;;;;;;12.45;7.75;;;;;;;-1.58;100.00;95621.22;5023619;28;20045;-68
2023/12/06 05:32:25;;;;;;;13.60;8.10;;;;;;;-1.59;100.00;95624.72;5027193;28;20037;-68
2023/12/06 05:34:50;;;;;;;12.57;8.73;;;;;;;-1.63;100.00;95618.84;5020968;28;20034;-68
2023/12/06 05:37:16;;;;;;;9.63;8.63;;;;;;;-1.63;100.00;95616.25;5024716;28;20139;-68
2023/12/06 05:39:42;;;;;;;13.70;8.80;;;;;;;-1.66;100.00;95612.97;5026615;28;20135;-67
2023/12/06 05:42:07;;;;;;;10.20;7.70;;;;;;;-1.67;100.00;95619.03;5023911;28;20537;-67
2023/12/06 05:44:33;;;;;;;13.38;7.97;;;;;;;-1.66;100.00;95620.72;5022777;28;20075;-67
2023/12/06 05:46:59;;;;;;;11.20;7.47;;;;;;;-1.68;100.00;95618.22;5023853;28;20520;-67
2023/12/06 05:49:24;;;;;;;10.05;7.38;;;;;;;-1.73;100.00;95615.84;5017434;28;20026;-67
2023/12/06 05:51:50;;;;;;;10.65;7.57;;;;;;;-1.74;100.00;95624.50;5031068;28;20107;-67
2023/12/06 05:54:15;;;;;;;12.68;7.97;;;;;;;-1.76;100.00;95615.16;5009383;28;20037;-68
2023/12/06 05:56:40;;;;;;;9.88;8.27;;;;;;;-1.79;100.00;95613.53;5021856;28;20498;-67
2023/12/06 05:59:06;;;;;;;8.55;7.63;;;;;;;-1.78;100.00;95610.06;5018937;28;20482;-67
2023/12/06 06:01:32;;;;;;;9.15;7.97;;;;;;;-1.78;100.00;95615.22;5027383;28;20047;-68
2023/12/06 06:03:57;;;;;;;8.45;7.50;;;;;;;-1.75;100.00;95604.75;5031079;28;20080;-68
2023/12/06 06:06:22;;;;;;;12.32;7.72;;;;;;;-1.79;100.00;95612.69;5022675;28;20159;-67
2023/12/06 06:08:48;;;;;;;9.38;7.88;;;;;;;-1.82;100.00;95615.41;5029380;28;20081;-67
2023/12/06 06:11:14;;;;;;;9.18;7.50;;;;;;;-1.83;100.00;95612.00;5026835;28;20026;-68
2023/12/06 06:13:39;;;;;;;8.88;7.32;;;;;;;-1.83;100.00;95617.16;5021775;28;20080;-67
2023/12/06 06:16:05;;;;;;;10.75;7.30;;;;;;;-1.88;100.00;95612.19;5024591;28;20049;-67
2023/12/06 06:18:31;;;;;;;8.25;7.07;;;;;;;-1.91;100.00;95616.66;5024323;28;20029;-67
2023/12/06 06:20:58;;;;;;;11.38;8.23;;;;;;;-1.93;100.00;95621.03;5022474;28;20036;-67
2023/12/06 06:23:23;;;;;;;8.55;7.50;;;;;;;-1.91;100.00;95619.22;5029626;28;20029;-68
2023/12/06 06:25:49;;;;;;;13.95;9.32;;;;;;;-1.93;100.00;95633.94;5024198;28;20035;-68
2023/12/06 06:28:15;;;;;;;20.15;11.82;;;;;;;-1.88;100.00;95634.56;5022254;28;20109;-68
2023/12/06 06:30:41;;;;;;;18.63;14.57;;;;;;;-1.92;100.00;95628.72;5027056;28;20030;-67
2023/12/06 06:33:07;;;;;;;15.98;14.30;;;;;;;-1.93;100.00;95628.78;5027793;28;20095;-68
2023/12/06 06:35:33;;;;;;;17.85;12.55;;;;;;;-2.01;100.00;95629.13;5028476;28;20507;-68
2023/12/06 06:37:58;;;;;;;17.48;14.00;;;;;;;-2.06;100.00;95629.34;5028407;28;20033;-67
2023/12/06 06:40:23;;;;;;;15.38;13.35;;;;;;;-2.04;100.00;95627.53;5035734;28;20799;-68
2023/12/06 06:42:49;;;;;;;14.98;11.98;;;;;;;-2.00;100.00;95629.97;5022034;28;20506;-67
2023/12/06 06:45:14;;;;;;;14.75;11.10;;;;;;;-1.98;100.00;95630.75;5025989;28;20033;-68
2023/12/06 06:47:41;;;;;;;17.20;10.75;;;;;;;-2.04;100.00;95637.84;5025399;28;20116;-67
2023/12/06 06:50:07;;;;;;;12.15;10.60;;;;;;;-2.03;100.00;95636.09;5025188;28;20064;-67
2023/12/06 06:52:33;;;;;;;14.95;10.35;;;;;;;-2.05;100.00;95636.19;5030810;28;20081;-66
2023/12/06 06:54:58;;;;;;;15.90;10.40;;;;;;;-2.04;100.00;95639.56;5031541;28;20053;-68
2023/12/06 06:57:24;;;;;;;11.80;10.05;;;;;;;-2.04;100.00;95639.56;5026589;28;20052;-67
2023/12/06 06:59:49;;;;;;;14.00;10.25;;;;;;;-2.10;100.00;95640.69;5028198;28;20068;-68
2023/12/06 07:02:16;;;;;;;11.80;9.82;;;;;;;-2.12;100.00;95639.06;5020546;28;20037;-69
2023/12/06 07:04:41;;;;;;;10.75;9.75;;;;;;;-2.14;100.00;95646.88;5028632;28;20040;-67
2023/12/06 07:07:07;;;;;;;19.75;13.73;;;;;;;-2.17;100.00;95641.84;5026423;28;20025;-67
2023/12/06 07:09:32;;;;;;;19.50;14.82;;;;;;;-2.17;100.00;95634.09;5026680;28;20061;-66
2023/12/06 07:11:57;;;;;;;17.63;13.57;;;;;;;-2.18;100.00;95643.59;5024239;28;20056;-66
2023/12/06 07:14:23;;;;;;;12.50;11.23;;;;;;;-2.23;100.00;95635.19;5027685;28;20053;-66
2023/12/06 07:16:48;;;;;;;14.18;12.55;;;;;;;-2.21;100.00;95637.72;5026171;28;20050;-67
2023/12/06 07:19:13;;;;;;;14.25;12.75;;;;;;;-2.20;100.00;95641.97;5029703;28;20037;-67
2023/12/06 07:21:39;;;;;;;14.20;12.70;;;;;;;-2.18;100.00;95645.34;5025796;28;20033;-67
2023/12/06 07:24:04;;;;;;;15.82;12.73;;;;;;;-2.17;100.00;95647.84;5030206;28;20042;-65
2023/12/06 07:26:30;;;;;;;14.52;12.65;;;;;;;-2.16;100.00;95651.25;5028049;28;20030;-66
2023/12/06 07:28:55;;;;;;;16.50;13.50;;;;;;;-2.15;100.00;95647.78;5025166;28;20034;-67
2023/12/06 07:31:20;;;;;;;15.68;14.02;;;;;;;-2.14;100.00;95644.28;5021846;28;20109;-64
2023/12/06 07:33:49;;;;;;;19.77;15.38;;;;;;;-2.16;100.00;95651.25;5032765;28;20087;-63
2023/12/06 07:36:14;;;;;;;25.48;18.33;;;;;;;-2.17;100.00;95652.16;5029465;28;20034;-64
2023/12/06 07:38:40;;;;;;;19.02;16.20;;;;;;;-2.17;100.00;95650.44;5027983;28;20784;-63
2023/12/06 07:41:05;;;;;;;19.63;15.65;;;;;;;-2.17;100.00;95649.59;5027618;28;20037;-64
2023/12/06 07:43:30;;;;;;;23.50;14.77;;;;;;;-2.18;100.00;95647.91;5027010;28;20025;-63
2023/12/06 07:45:56;;;;;;;18.17;14.80;;;;;;;-2.19;100.00;95649.66;5026775;28;20040;-64
2023/12/06 07:48:21;;;;;;;16.67;13.30;;;;;;;-2.15;100.00;95655.50;5023600;28;20115;-64
2023/12/06 07:50:47;;;;;;;19.23;13.68;;;;;;;-2.17;100.00;95658.19;5029423;28;20101;-63
2023/12/06 07:53:13;;;;;;;19.20;14.88;;;;;;;-2.17;100.00;95653.03;5030344;28;20060;-64
2023/12/06 07:55:39;;;;;;;16.92;15.18;;;;;;;-2.16;100.00;95657.28;5019931;28;20041;-64
2023/12/06 07:58:04;;;;;;;18.58;15.32;;;;;;;-2.14;100.00;95661.53;5023475;28;20029;-64
2023/12/06 08:00:30;;;;;;;20.30;15.73;;;;;;;-2.14;100.00;95657.19;5030492;28;20488;-64
2023/12/06 08:02:55;;;;;;;20.42;15.38;;;;;;;-2.09;100.00;95663.00;5029326;28;20095;-63
2023/12/06 08:05:21;;;;;;;16.58;14.82;;;;;;;-2.09;100.00;95664.75;5026307;28;20105;-64
2023/12/06 08:07:47;;;;;;;15.43;13.55;;;;;;;-2.02;100.00;95664.41;5021932;28;20092;-64
2023/12/06 08:10:19;;;;;;;17.35;14.27;;;;;;;-2.02;100.00;95663.56;5033792;28;20083;-64
2023/12/06 08:12:45;;;;;;;14.70;12.85;;;;;;;-2.00;100.00;95664.34;5025200;28;20034;-63
2023/12/06 08:15:10;;;;;;;14.90;12.60;;;;;;;-2.02;100.00;95672.16;5019212;28;20080;-63
2023/12/06 08:17:35;;;;;;;13.98;11.98;;;;;;;-1.97;100.00;95666.81;5025262;28;20036;-64
2023/12/06 08:20:01;;;;;;;14.98;12.60;;;;;;;-1.95;100.00;95672.75;5030700;28;20029;-63
2023/12/06 08:22:27;;;;;;;12.82;10.85;;;;;;;-1.91;100.00;95671.69;5028750;28;20026;-63
2023/12/06 08:24:57;;;;;;;18.52;11.90;;;;;;;-1.87;100.00;95669.84;5024719;28;20029;-64
2023/12/06 08:27:27;;;;;;;13.02;11.82;;;;;;;-1.90;100.00;95669.94;5024782;28;20449;-63
2023/12/06 08:29:53;;;;;;;13.05;11.10;;;;;;;-1.91;100.00;95682.03;5033282;28;20309;-64
2023/12/06 08:32:19;;;;;;;11.80;10.05;;;;;;;-1.93;100.00;95678.66;5021708;28;20163;-64
2023/12/06 08:34:44;;;;;;;11.45;10.00;;;;;;;-1.93;100.00;95672.66;5027771;28;20033;-63
2023/12/06 08:37:09;;;;;;;14.52;12.45;;;;;;;-1.93;100.00;95677.81;5022203;28;20449;-63
2023/12/06 08:39:35;;;;;;;14.63;12.32;;;;;;;-1.96;100.00;95677.97;5025211;28;20026;-63
2023/12/06 08:42:00;;;;;;;14.43;12.68;;;;;;;-1.97;100.00;95676.28;5024005;28;20032;-63
2023/12/06 08:44:25;;;;;;;18.08;12.77;;;;;;;-1.96;100.00;95672.78;5025990;28;20109;-63
2023/12/06 08:46:51;;;;;;;17.92;12.95;;;;;;;-1.97;100.00;95677.13;5030369;28;20022;-63
2023/12/06 08:49:16;;;;;;;22.83;16.00;;;;;;;-1.94;100.00;95670.97;5029118;28;20044;-63
2023/12/06 08:51:42;;;;;;;22.17;16.90;;;;;;;-1.91;100.00;95669.13;5024773;28;20651;-63
2023/12/06 08:54:09;;;;;;;20.30;15.27;;;;;;;-1.83;100.00;95668.78;5029616;28;20030;-64
2023/12/06 08:56:34;;;;;;;15.35;10.70;;;;;;;-1.81;100.00;95668.72;5025788;28;20030;-63
2023/12/06 08:59:00;;;;;;;15.18;12.50;;;;;;;-1.81;100.00;95672.13;5028248;28;20099;-63
2023/12/06 09:01:25;;;;;;;15.00;13.40;;;;;;;-1.77;100.00;95676.25;5028224;28;20067;-63
2023/12/06 09:03:50;;;;;;;14.88;13.27;;;;;;;-1.77;100.00;95672.81;5030694;28;20022;-63
2023/12/06 09:06:17;;;;;;;14.68;11.48;;;;;;;-1.77;100.00;95676.25;5022887;28;20040;-63
2023/12/06 09:08:43;;;;;;;12.68;11.07;;;;;;;-1.76;100.00;95683.09;5040192;28;20080;-63
2023/12/06 09:11:08;;;;;;;16.73;11.40;;;;;;;-1.73;100.00;95677.78;5026818;28;20029;-64
2023/12/06 09:13:33;;;;;;;12.35;11.05;;;;;;;-1.77;100.00;95686.59;5038957;28;20025;-64
2023/12/06 09:15:59;;;;;;;13.60;11.07;;;;;;;-1.76;100.00;95680.50;5025606;28;20132;-63
2023/12/06 09:18:24;;;;;;;13.93;11.90;;;;;;;-1.74;100.00;95678.69;5026130;28;20030;-63
2023/12/06 09:20:49;;;;;;;18.80;14.20;;;;;;;-1.73;100.00;95680.38;5029901;28;20058;-63
2023/12/06 09:23:15;;;;;;;18.33;14.23;;;;;;;-1.43;100.00;95673.09;5026331;28;20029;-64
2023/12/06 09:25:40;;;;;;;21.98;14.88;;;;;;;-0.98;100.00;95676.22;5027817;28;20038;-63
2023/12/06 09:28:06;;;;;;;24.00;15.68;;;;;;;-0.55;100.00;95684.53;5033237;28;20448;-64
2023/12/06 09:30:31;;;;;;;32.85;19.27;;;;;;;-0.12;100.00;95684.16;5025081;28;20502;-64
2023/12/06 09:32:56;;;;;;;45.83;30.23;;;;;;;0.24;100.00;95693.56;5024527;28;20504;-64
2023/12/06 09:35:22;;;;;;;53.15;36.78;;;;;;;0.52;100.00;95694.72;5029921;28;20041;-64
2023/12/06 09:37:48;;;;;;;47.20;33.50;;;;;;;0.68;100.00;95702.56;5029663;28;20080;-64
2023/12/06 09:40:14;;;;;;;35.78;26.08;;;;;;;0.89;100.00;95699.75;5026057;28;20033;-64
2023/12/06 09:42:46;;;;;;;25.73;19.40;;;;;;;1.07;100.00;95703.09;5021238;28;20029;-64
2023/12/06 09:45:14;;;;;;;64.00;40.42;;;;;;;1.28;100.00;95715.81;5024314;28;20501;-64
2023/12/06 09:47:42;;;;;;;54.78;37.13;;;;;;;1.43;100.00;95724.50;5008162;28;20108;-64
2023/12/06 09:50:10;;;;;;;25.63;18.60;;;;;;;1.43;100.00;95740.06;5026589;28;20394;-64
2023/12/06 09:52:35;;;;;;;22.10;16.50;;;;;;;1.51;100.00;95750.03;5030829;28;20105;-64
2023/12/06 09:55:01;;;;;;;25.48;16.00;;;;;;;1.66;100.00;95761.31;5029649;28;20029;-65
2023/12/06 09:57:26;;;;;;;14.25;10.73;;;;;;;1.80;100.00;95776.09;5030387;28;20025;-64
2023/12/06 09:59:51;;;;;;;7.97;6.20;;;;;;;1.90;100.00;95792.84;5029980;28;20033;-64
2023/12/06 10:02:17;;;;;;;12.23;9.40;;;;;;;1.94;100.00;95803.88;5033187;28;20033;-65
2023/12/06 10:04:42;;;;;;;10.90;8.73;;;;;;;2.08;100.00;95829.06;5031650;28;20025;-64
2023/12/06 10:07:09;;;;;;;12.70;9.43;;;;;;;2.23;100.00;95853.38;5031191;28;20125;-65
2023/12/06 10:09:35;;;;;;;11.65;9.95;;;;;;;2.31;100.00;95856.38;5034911;28;20053;-66
2023/12/06 10:12:07;;;;;;;7.20;3.00;;;;;;;2.35;100.00;95878.66;5034851;28;20037;-65
2023/12/06 10:14:32;;;;;;;2.33;2.15;;;;;;;2.43;100.00;95891.22;5028828;28;20021;-65
2023/12/06 10:16:58;;;;;;;2.03;1.90;;;;;;;2.38;100.00;95903.63;5029820;28;20448;-64
2023/12/06 10:19:23;;;;;;;3.40;2.63;;;;;;;2.56;100.00;95915.59;5029361;28;20137;-65
2023/12/06 10:21:49;;;;;;;3.75;3.00;;;;;;;2.74;100.00;95922.44;5027838;28;20030;-65
2023/12/06 10:24:14;;;;;;;2.85;2.63;;;;;;;2.84;100.00;95924.41;5025209;28;20021;-65
2023/12/06 10:26:40;;;;;;;10.05;8.55;;;;;;;3.04;100.00;95927.63;5026750;28;20025;-65
2023/12/06 10:29:05;;;;;;;6.22;5.68;;;;;;;3.14;100.00;95928.75;5032151;28;20034;-65
2023/12/06 10:31:42;;;;;;;6.43;4.25;;;;;;;3.34;100.00;95929.31;5024944;28;20084;-65
2023/12/06 10:34:08;;;;;;;7.90;3.75;;;;;;;3.29;100.00;95926.16;5026061;28;20026;-65
2023/12/06 10:36:35;;;;;;;4.90;3.85;;;;;;;3.34;100.00;95931.94;5028149;28;20128;-65
2023/12/06 10:39:02;;;;;;;5.40;4.82;;;;;;;3.21;100.00;95925.78;5032267;28;20025;-65
2023/12/06 10:41:32;;;;;;;2.95;2.75;;;;;;;3.31;100.00;95934.72;5028685;28;20065;-65
2023/12/06 10:43:59;;;;;;;4.25;2.65;;;;;;;3.32;100.00;95932.97;5025758;28;20033;-65
2023/12/06 10:46:26;;;;;;;3.30;3.00;;;;;;;3.35;100.00;95935.38;5019395;28;20029;-65
2023/12/06 10:48:54;;;;;;;3.67;3.38;;;;;;;3.51;100.00;95945.72;5029996;28;20061;-65
2023/12/06 10:51:20;;;;;;;7.80;3.95;;;;;;;3.57;100.00;95940.13;5030008;28;20055;-65
2023/12/06 10:53:46;;;;;;;6.07;5.13;;;;;;;3.57;100.00;95929.72;5026597;28;20046;-65
2023/12/06 10:56:14;;;;;;;3.53;3.05;;;;;;;3.56;100.00;95908.06;5017924;28;20033;-65
2023/12/06 10:58:40;;;;;;;10.27;4.07;;;;;;;3.68;100.00;95916.03;5031457;28;20056;-65
2023/12/06 11:01:06;;;;;;;7.07;3.92;;;;;;;3.86;100.00;95906.25;5035939;28;20025;-65
2023/12/06 11:03:31;;;;;;;3.95;3.55;;;;;;;3.66;100.00;95903.13;5027665;28;20060;-65
2023/12/06 11:06:06;;;;;;;4.35;3.33;;;;;;;3.52;100.00;95895.31;5027935;28;20026;-65
2023/12/06 11:08:43;;;;;;;6.35;3.33;;;;;;;3.66;100.00;95907.47;5017693;28;20628;-65
2023/12/06 11:11:30;;;;;;;4.20;3.15;;;;;;;3.85;100.00;95913.25;5028678;28;20072;-65